首页
METAR-TAF:

METAR-TAF

机场 :

南安普敦機場

南安普敦, 英格兰

纬度: 50-54N, 经度: 001-24W, 海拔: 9米

当前天气观测

该预报发布于3小时和15分钟前的21:20 UTC
风速5节,风向北转东北,在北转西北东转东北之间变化
温度 19°C
湿度 83%
气压 1022 hPa
能见度10公里或以上
散云层高于1700英尺

METAR: EGHI 252120Z 02005KT 330V060 9999 SCT017 19/16 Q1022

时间: 01:35 (00:35 UTC)

预报

该预报发布于7小时和38分钟前的16:57 UTC
预报有效从25日的 18点(UTC)到 25日的 22点(UTC)
风速3节,风向多变
能见度10公里或以上
散云层高于2500英尺
几率 30% :
短暂存在
从 25日的 18点(UTC)到 25日的 22点(UTC)
能見度: 9000

TAF: EGHI 251657Z 2518/2522 VRB03KT 9999 SCT025 PROB30 TEMPO 2518/2522 9000

超过4000个机场的气象观测和天气预报(METAR&TAF报告)。

可查询的气象台以黄色和红色小点在地图上表示。

将鼠标移到小点上方,可查看气象台名称。

然后点击查看天气观测和预报。

如需切换地图:点击带黑十字的绿色按钮放大地图;点击带横线的绿色按钮缩小地图;或者点击绿色箭头查看邻近地区的地图。


METAR-TAF: